createdAt,value
2019-03-23T00:00:37.537Z,79.80
2019-03-23T00:04:43.178Z,80.30
2019-03-23T00:08:48.619Z,80.40
2019-03-23T00:12:54.182Z,80.60
2019-03-23T00:16:59.635Z,81.50
2019-03-23T00:21:05.134Z,81.60
2019-03-23T00:25:10.867Z,81.60
2019-03-23T00:29:16.467Z,81.80
2019-03-23T00:33:21.901Z,81.90
2019-03-23T00:37:27.504Z,81.90
2019-03-23T00:41:32.951Z,82.30
2019-03-23T00:45:38.698Z,82.50
2019-03-23T00:49:44.120Z,83.00
2019-03-23T00:53:49.576Z,83.10
2019-03-23T00:57:56.146Z,83.40
2019-03-23T01:02:01.667Z,83.80
2019-03-23T01:06:07.290Z,84.10
2019-03-23T01:10:13.003Z,84.40
2019-03-23T01:14:18.626Z,84.60
2019-03-23T01:18:24.069Z,85.30
2019-03-23T01:22:29.751Z,84.60
2019-03-23T01:26:35.600Z,84.80
2019-03-23T01:30:41.163Z,85.90
2019-03-23T01:34:46.602Z,85.90
2019-03-23T01:38:52.919Z,85.80
2019-03-23T01:42:59.283Z,85.90
2019-03-23T01:47:04.725Z,85.70
2019-03-23T01:51:10.495Z,85.80
2019-03-23T01:55:15.940Z,86.80
2019-03-23T01:59:21.533Z,87.30
2019-03-23T02:03:26.936Z,87.90
2019-03-23T02:07:32.553Z,88.00
2019-03-23T02:11:38.060Z,88.60
2019-03-23T02:15:43.679Z,88.70
2019-03-23T02:19:49.196Z,89.90
2019-03-23T02:23:54.791Z,90.30
2019-03-23T02:28:00.225Z,90.00
2019-03-23T02:32:05.891Z,90.00
2019-03-23T02:36:11.338Z,90.20
2019-03-23T02:40:16.904Z,90.40
2019-03-23T02:44:22.307Z,90.30
2019-03-23T02:48:27.743Z,90.30
2019-03-23T02:52:33.300Z,90.50
2019-03-23T02:56:38.702Z,90.60
2019-03-23T03:00:44.308Z,90.70
2019-03-23T03:04:49.755Z,90.70
2019-03-23T03:08:55.314Z,91.00
2019-03-23T03:13:00.774Z,91.20
2019-03-23T03:17:06.687Z,91.50
2019-03-23T03:21:12.300Z,91.80
2019-03-23T03:25:17.746Z,91.70
2019-03-23T03:29:23.652Z,91.60
2019-03-23T03:33:29.087Z,91.60
2019-03-23T03:37:35.685Z,91.90
2019-03-23T03:41:41.131Z,92.10
2019-03-23T03:45:46.803Z,92.00
2019-03-23T03:49:52.413Z,92.00
2019-03-23T03:53:57.858Z,92.20
2019-03-23T03:58:03.439Z,92.40
2019-03-23T04:02:08.916Z,92.80
2019-03-23T04:06:14.401Z,92.90
2019-03-23T04:10:19.854Z,93.00
2019-03-23T04:14:25.381Z,93.20
2019-03-23T04:18:30.828Z,93.50
2019-03-23T04:22:36.326Z,93.60
2019-03-23T04:26:41.858Z,93.60
2019-03-23T04:30:47.391Z,94.00
2019-03-23T04:34:52.813Z,94.00
2019-03-23T04:38:58.309Z,94.00
2019-03-23T04:43:03.767Z,94.10
2019-03-23T04:47:09.225Z,94.10
2019-03-23T04:51:14.677Z,94.30
2019-03-23T04:55:20.151Z,94.10
2019-03-23T04:59:25.593Z,94.40
2019-03-23T05:03:31.150Z,94.40
2019-03-23T05:07:36.572Z,94.60
2019-03-23T05:11:42.407Z,94.90
2019-03-23T05:15:48.493Z,95.00
2019-03-23T05:19:53.950Z,95.20
2019-03-23T05:23:59.515Z,95.00
2019-03-23T05:28:04.938Z,95.10
2019-03-23T05:32:10.486Z,94.90
2019-03-23T05:36:15.936Z,94.80
2019-03-23T05:40:21.780Z,94.90
2019-03-23T05:44:27.229Z,94.90
2019-03-23T05:48:32.670Z,95.10
2019-03-23T05:52:38.530Z,94.90
2019-03-23T05:56:44.356Z,94.80
2019-03-23T06:00:49.931Z,94.90
2019-03-23T06:04:55.539Z,94.60
2019-03-23T06:09:01.852Z,95.00
2019-03-23T06:13:07.402Z,94.90
2019-03-23T06:17:12.882Z,94.80
2019-03-23T06:21:18.535Z,94.90
2019-03-23T06:25:24.227Z,95.00
2019-03-23T06:29:29.672Z,94.70
2019-03-23T06:33:35.279Z,94.70
2019-03-23T06:37:40.720Z,94.20
2019-03-23T06:41:46.170Z,94.30
2019-03-23T06:45:51.787Z,93.70
2019-03-23T06:49:57.390Z,93.10
2019-03-23T06:54:02.826Z,93.10
2019-03-23T06:58:08.478Z,92.50
2019-03-23T07:02:14.562Z,91.70
2019-03-23T07:06:20.052Z,91.10
2019-03-23T07:10:25.590Z,90.00
2019-03-23T07:14:31.259Z,88.70
2019-03-23T07:18:37.195Z,85.80
2019-03-23T07:22:43.136Z,84.70
2019-03-23T07:26:48.817Z,82.40
2019-03-23T07:30:54.834Z,80.50
2019-03-23T07:35:00.598Z,78.00
2019-03-23T07:39:07.696Z,71.10
2019-03-23T07:43:13.701Z,70.90
2019-03-23T07:47:19.343Z,65.80
2019-03-23T07:51:24.958Z,61.50
2019-03-23T07:55:31.076Z,58.70
2019-03-23T07:59:37.236Z,56.30
2019-03-23T08:03:42.707Z,52.70
2019-03-23T08:07:48.439Z,52.30
2019-03-23T08:11:54.085Z,51.90
2019-03-23T08:15:59.623Z,51.90
2019-03-23T08:20:05.288Z,49.70
2019-03-23T08:24:10.754Z,48.70
2019-03-23T08:28:16.436Z,46.60
2019-03-23T08:32:21.890Z,43.00
2019-03-23T08:36:27.408Z,39.50
2019-03-23T08:40:32.909Z,36.60
2019-03-23T08:44:38.373Z,34.60
2019-03-23T08:48:43.878Z,31.00
2019-03-23T08:52:49.418Z,31.70
2019-03-23T08:56:54.996Z,28.30
2019-03-23T09:01:01.184Z,27.60
2019-03-23T09:05:06.967Z,26.60
2019-03-23T09:09:12.422Z,26.60
2019-03-23T09:13:19.085Z,24.90
2019-03-23T09:17:24.600Z,24.50
2019-03-23T09:21:30.081Z,25.70
2019-03-23T09:25:35.595Z,24.80
2019-03-23T09:29:41.634Z,25.10
2019-03-23T09:33:47.114Z,24.60
2019-03-23T09:37:52.611Z,24.70
2019-03-23T09:41:58.073Z,25.20
2019-03-23T09:46:03.589Z,22.80
2019-03-23T09:50:11.201Z,22.80
2019-03-23T09:54:16.696Z,23.90
2019-03-23T09:58:22.225Z,24.50
2019-03-23T10:02:27.657Z,24.50
2019-03-23T10:06:33.532Z,24.40
2019-03-23T10:10:39.074Z,25.60
2019-03-23T10:14:44.859Z,24.40
2019-03-23T10:18:50.285Z,23.90
2019-03-23T10:22:55.881Z,22.60
2019-03-23T10:27:01.672Z,21.60
2019-03-23T10:31:07.148Z,21.60
2019-03-23T10:35:12.762Z,21.40
2019-03-23T10:39:18.582Z,21.10
2019-03-23T10:43:24.055Z,21.50
2019-03-23T10:47:29.721Z,21.60
2019-03-23T10:51:35.433Z,22.00
2019-03-23T10:55:40.871Z,22.30
2019-03-23T10:59:46.306Z,22.30
2019-03-23T11:03:51.734Z,21.70
2019-03-23T11:07:57.264Z,20.50
2019-03-23T11:12:02.929Z,22.50
2019-03-23T11:16:08.363Z,23.50
2019-03-23T11:20:14.252Z,22.50
2019-03-23T11:24:19.711Z,20.70
2019-03-23T11:28:25.405Z,20.30
2019-03-23T11:32:30.862Z,20.10
2019-03-23T11:36:36.314Z,21.40
2019-03-23T11:40:51.805Z,20.30
2019-03-23T11:44:49.078Z,20.30
2019-03-23T11:48:54.780Z,20.00
2019-03-23T11:53:00.272Z,19.10
2019-03-23T11:57:05.718Z,19.00
2019-03-23T12:01:11.304Z,19.00
2019-03-23T12:05:17.037Z,17.90
2019-03-23T12:09:22.451Z,18.60
2019-03-23T12:13:27.897Z,18.30
2019-03-23T12:17:33.440Z,19.40
2019-03-23T12:21:39.262Z,18.70
2019-03-23T12:25:44.688Z,17.90
2019-03-23T12:29:50.821Z,16.70
2019-03-23T12:33:56.380Z,17.10
2019-03-23T12:38:01.843Z,17.50
2019-03-23T12:42:07.377Z,15.50
2019-03-23T12:46:12.978Z,16.10
2019-03-23T12:50:18.854Z,15.40
2019-03-23T12:54:24.506Z,15.20
2019-03-23T12:58:30.097Z,14.90
2019-03-23T13:02:35.549Z,16.40
2019-03-23T13:06:40.985Z,16.00
2019-03-23T13:10:46.422Z,15.60
2019-03-23T13:14:52.071Z,15.30
2019-03-23T13:18:57.502Z,14.90
2019-03-23T13:23:03.904Z,15.00
2019-03-23T13:27:09.359Z,17.00
2019-03-23T13:31:14.769Z,16.00
2019-03-23T13:35:20.319Z,15.90
2019-03-23T13:39:25.762Z,15.80
2019-03-23T13:43:31.218Z,16.00
2019-03-23T13:47:36.825Z,15.20
2019-03-23T13:51:42.705Z,15.10
2019-03-23T13:55:48.592Z,14.40
2019-03-23T13:59:54.124Z,15.70
2019-03-23T14:03:59.555Z,16.10
2019-03-23T14:08:05.458Z,15.10
2019-03-23T14:12:10.912Z,14.00
2019-03-23T14:16:16.330Z,13.60
2019-03-23T14:20:21.762Z,13.70
2019-03-23T14:24:27.326Z,15.10
2019-03-23T14:28:32.773Z,14.90
2019-03-23T14:32:38.286Z,15.30
2019-03-23T14:36:43.764Z,14.60
2019-03-23T14:40:49.217Z,15.10
2019-03-23T14:44:54.651Z,16.50
2019-03-23T14:49:01.730Z,14.90
2019-03-23T14:53:07.356Z,14.80
2019-03-23T14:57:12.822Z,18.30
2019-03-23T15:01:18.291Z,21.60
2019-03-23T15:05:23.851Z,24.00
2019-03-23T15:09:29.576Z,26.50
2019-03-23T15:13:35.013Z,27.90
2019-03-23T15:17:48.450Z,30.20
2019-03-23T15:21:48.201Z,31.60
2019-03-23T15:25:53.986Z,33.20
2019-03-23T15:29:59.494Z,33.30
2019-03-23T15:34:05.433Z,34.70
2019-03-23T15:38:11.116Z,33.90
2019-03-23T15:42:24.409Z,33.70
2019-03-23T15:46:23.814Z,35.30
2019-03-23T15:50:29.486Z,36.50
2019-03-23T15:54:35.017Z,36.60
2019-03-23T15:58:40.473Z,36.40
2019-03-23T16:02:45.936Z,35.50
2019-03-23T16:06:51.472Z,35.50
2019-03-23T16:10:56.943Z,36.60
2019-03-23T16:15:02.538Z,36.70
2019-03-23T16:19:08.007Z,36.20
2019-03-23T16:23:13.437Z,36.60
2019-03-23T16:27:19.029Z,38.20
2019-03-23T16:31:24.567Z,38.90
2019-03-23T16:35:30.002Z,40.40
2019-03-23T16:39:35.873Z,41.80
2019-03-23T16:43:41.363Z,44.40
2019-03-23T16:47:47.033Z,44.80
2019-03-23T16:51:52.536Z,46.70
2019-03-23T16:55:58.021Z,47.60
2019-03-23T17:00:03.656Z,48.30
2019-03-23T17:04:09.237Z,49.20
2019-03-23T17:08:14.875Z,50.20
2019-03-23T17:12:20.342Z,51.00
2019-03-23T17:16:25.837Z,51.20
2019-03-23T17:20:32.957Z,52.40
2019-03-23T17:24:39.162Z,52.90
2019-03-23T17:28:44.867Z,53.10
2019-03-23T17:32:50.390Z,54.60
2019-03-23T17:36:55.891Z,54.90
2019-03-23T17:41:02.046Z,56.20
2019-03-23T17:45:08.524Z,56.00
2019-03-23T17:49:13.963Z,57.10
2019-03-23T17:53:19.414Z,57.10
2019-03-23T17:57:25.288Z,57.70
2019-03-23T18:01:30.725Z,59.10
2019-03-23T18:05:41.687Z,59.20
2019-03-23T18:09:53.931Z,59.80
2019-03-23T18:14:03.411Z,60.60
2019-03-23T18:18:09.291Z,62.40
2019-03-23T18:22:20.013Z,62.30
2019-03-23T18:26:25.765Z,62.30
2019-03-23T18:30:54.685Z,63.40
2019-03-23T18:35:07.543Z,64.00
2019-03-23T18:39:13.368Z,64.90
2019-03-23T18:43:27.750Z,65.10
2019-03-23T18:47:37.106Z,66.20
2019-03-23T18:51:46.910Z,66.40
2019-03-23T18:55:56.593Z,66.70
2019-03-23T19:00:06.595Z,67.10
2019-03-23T19:04:16.187Z,68.10
2019-03-23T19:08:26.259Z,68.50
2019-03-23T19:12:38.487Z,69.10
2019-03-23T19:16:52.856Z,69.60
2019-03-23T19:21:05.104Z,70.70
2019-03-23T19:25:22.124Z,71.20
2019-03-23T19:29:33.802Z,71.20
2019-03-23T19:33:40.833Z,71.70
2019-03-23T19:37:46.432Z,72.50
2019-03-23T19:41:51.909Z,72.60
2019-03-23T19:46:06.029Z,73.40
2019-03-23T19:50:23.029Z,73.40
2019-03-23T19:54:34.223Z,74.50
2019-03-23T19:58:44.820Z,75.10
2019-03-23T20:02:54.312Z,75.30
2019-03-23T20:06:59.758Z,75.60
2019-03-23T20:11:05.383Z,76.40
2019-03-23T20:15:12.237Z,76.90
2019-03-23T20:19:18.051Z,77.50
2019-03-23T20:23:24.028Z,77.70
2019-03-23T20:27:29.748Z,78.20
2019-03-23T20:31:35.694Z,78.40
2019-03-23T20:35:41.842Z,78.90
2019-03-23T20:39:47.452Z,80.30
2019-03-23T20:43:53.125Z,80.30
2019-03-23T20:48:08.944Z,80.20
2019-03-23T20:52:21.667Z,80.20
2019-03-23T20:56:28.672Z,80.90
2019-03-23T21:00:34.201Z,81.70
2019-03-23T21:04:48.321Z,82.30
2019-03-23T21:09:09.418Z,83.60
2019-03-23T21:13:20.516Z,83.20
2019-03-23T21:17:26.081Z,83.10
2019-03-23T21:21:31.570Z,83.90
2019-03-23T21:25:37.110Z,84.30
2019-03-23T21:29:42.672Z,84.30
2019-03-23T21:33:48.075Z,84.60
2019-03-23T21:37:53.626Z,85.10
2019-03-23T21:41:59.469Z,85.70
2019-03-23T21:46:05.055Z,86.00
2019-03-23T21:50:11.001Z,85.80
2019-03-23T21:54:16.512Z,86.50
2019-03-23T21:58:21.996Z,86.90
2019-03-23T22:02:27.828Z,86.80
2019-03-23T22:06:33.336Z,87.10
2019-03-23T22:10:38.863Z,88.00
2019-03-23T22:14:44.401Z,88.30
2019-03-23T22:18:49.853Z,88.30
2019-03-23T22:22:56.425Z,88.90
2019-03-23T22:27:01.978Z,88.90
2019-03-23T22:31:07.547Z,88.80
2019-03-23T22:35:13.108Z,89.80
2019-03-23T22:39:18.637Z,89.50
2019-03-23T22:43:24.107Z,90.20
2019-03-23T22:47:29.698Z,90.40
2019-03-23T22:51:35.182Z,90.50
2019-03-23T22:55:40.614Z,90.90
2019-03-23T22:59:46.148Z,91.00
2019-03-23T23:03:51.601Z,91.20
2019-03-23T23:07:57.131Z,91.40
2019-03-23T23:12:02.574Z,91.60
2019-03-23T23:16:08.290Z,92.00
2019-03-23T23:20:13.943Z,92.10
2019-03-23T23:24:19.500Z,92.10
2019-03-23T23:28:24.932Z,92.40
2019-03-23T23:32:30.426Z,92.80
2019-03-23T23:36:35.844Z,92.90
2019-03-23T23:40:41.495Z,92.70
2019-03-23T23:44:46.938Z,92.80
2019-03-23T23:48:53.087Z,93.00
2019-03-23T23:52:58.509Z,93.50
2019-03-23T23:57:04.018Z,93.50
